sensor_id;sensor_type;location;lat;lon;timestamp;pressure;altitude;pressure_sealevel;temperature;humidity
13314;BME280;6725;48.112;11.604;2022-11-12T00:01:14;95752.56;;;4.53;100.00
13314;BME280;6725;48.112;11.604;2022-11-12T00:03:39;95749.09;;;4.53;100.00
13314;BME280;6725;48.112;11.604;2022-11-12T00:06:04;95748.22;;;4.49;100.00
13314;BME280;6725;48.112;11.604;2022-11-12T00:08:30;95763.59;;;4.45;100.00
13314;BME280;6725;48.112;11.604;2022-11-12T00:10:55;95762.81;;;4.44;100.00
13314;BME280;6725;48.112;11.604;2022-11-12T00:13:20;95769.28;;;4.40;100.00
13314;BME280;6725;48.112;11.604;2022-11-12T00:15:56;95778.47;;;4.35;100.00
13314;BME280;6725;48.112;11.604;2022-11-12T00:18:22;95787.63;;;4.31;100.00
13314;BME280;6725;48.112;11.604;2022-11-12T00:20:47;95782.91;;;4.28;100.00
13314;BME280;6725;48.112;11.604;2022-11-12T00:23:13;95790.59;;;4.26;100.00
13314;BME280;6725;48.112;11.604;2022-11-12T00:25:40;95802.91;;;4.23;100.00
13314;BME280;6725;48.112;11.604;2022-11-12T00:28:24;95802.03;;;4.19;100.00
13314;BME280;6725;48.112;11.604;2022-11-12T00:30:49;95802.75;;;4.16;100.00
13314;BME280;6725;48.112;11.604;2022-11-12T00:33:14;95811.22;;;4.15;100.00
13314;BME280;6725;48.112;11.604;2022-11-12T00:35:40;95799.59;;;4.14;100.00
13314;BME280;6725;48.112;11.604;2022-11-12T00:38:05;95811.91;;;4.12;100.00
13314;BME280;6725;48.112;11.604;2022-11-12T00:40:30;95812.59;;;4.09;100.00
13314;BME280;6725;48.112;11.604;2022-11-12T00:42:56;95809.19;;;4.12;100.00
13314;BME280;6725;48.112;11.604;2022-11-12T00:45:22;95817.72;;;4.14;100.00
13314;BME280;6725;48.112;11.604;2022-11-12T00:47:47;95818.16;;;4.16;100.00
13314;BME280;6725;48.112;11.604;2022-11-12T00:50:12;95812.75;;;4.16;100.00
13314;BME280;6725;48.112;11.604;2022-11-12T00:52:40;95812.94;;;4.23;100.00
13314;BME280;6725;48.112;11.604;2022-11-12T00:55:05;95809.59;;;4.29;100.00
13314;BME280;6725;48.112;11.604;2022-11-12T00:57:31;95800.00;;;4.32;100.00
13314;BME280;6725;48.112;11.604;2022-11-12T00:59:56;95789.34;;;4.39;100.00
13314;BME280;6725;48.112;11.604;2022-11-12T01:02:21;95787.06;;;4.41;100.00
13314;BME280;6725;48.112;11.604;2022-11-12T01:04:47;95782.53;;;4.45;100.00
13314;BME280;6725;48.112;11.604;2022-11-12T01:07:12;95777.19;;;4.48;100.00
13314;BME280;6725;48.112;11.604;2022-11-12T01:09:40;95775.72;;;4.51;100.00
13314;BME280;6725;48.112;11.604;2022-11-12T01:12:05;95771.84;;;4.52;100.00
13314;BME280;6725;48.112;11.604;2022-11-12T01:14:31;95771.84;;;4.52;100.00
13314;BME280;6725;48.112;11.604;2022-11-12T01:16:56;95763.81;;;4.55;100.00
13314;BME280;6725;48.112;11.604;2022-11-12T01:19:22;95762.41;;;4.61;100.00
13314;BME280;6725;48.112;11.604;2022-11-12T01:21:47;95743.53;;;4.65;100.00
13314;BME280;6725;48.112;11.604;2022-11-12T01:24:12;95749.03;;;4.68;100.00
13314;BME280;6725;48.112;11.604;2022-11-12T01:26:38;95746.00;;;4.73;100.00
13314;BME280;6725;48.112;11.604;2022-11-12T01:29:04;95752.97;;;4.74;100.00
13314;BME280;6725;48.112;11.604;2022-11-12T01:31:35;95746.81;;;4.74;100.00
13314;BME280;6725;48.112;11.604;2022-11-12T01:34:04;95751.06;;;4.75;100.00
13314;BME280;6725;48.112;11.604;2022-11-12T01:36:33;95741.09;;;4.79;100.00
13314;BME280;6725;48.112;11.604;2022-11-12T01:38:59;95753.91;;;4.82;100.00
13314;BME280;6725;48.112;11.604;2022-11-12T01:41:27;95740.81;;;4.84;100.00
13314;BME280;6725;48.112;11.604;2022-11-12T01:44:21;95749.34;;;4.86;100.00
13314;BME280;6725;48.112;11.604;2022-11-12T01:47:04;95755.56;;;4.86;100.00
13314;BME280;6725;48.112;11.604;2022-11-12T01:52:41;95772.56;;;4.87;100.00
13314;BME280;6725;48.112;11.604;2022-11-12T01:55:10;95779.09;;;4.86;100.00
13314;BME280;6725;48.112;11.604;2022-11-12T01:57:42;95775.59;;;4.85;100.00
13314;BME280;6725;48.112;11.604;2022-11-12T02:00:11;95782.66;;;4.90;100.00
13314;BME280;6725;48.112;11.604;2022-11-12T02:02:38;95782.66;;;4.90;100.00
13314;BME280;6725;48.112;11.604;2022-11-12T02:05:06;95785.81;;;4.92;100.00
13314;BME280;6725;48.112;11.604;2022-11-12T02:07:33;95787.00;;;4.94;100.00
13314;BME280;6725;48.112;11.604;2022-11-12T02:10:01;95791.28;;;4.95;100.00
13314;BME280;6725;48.112;11.604;2022-11-12T02:12:27;95806.75;;;4.95;100.00
13314;BME280;6725;48.112;11.604;2022-11-12T02:15:11;95802.91;;;4.96;100.00
13314;BME280;6725;48.112;11.604;2022-11-12T02:17:37;95806.00;;;4.98;100.00
13314;BME280;6725;48.112;11.604;2022-11-12T02:20:03;95809.88;;;4.97;100.00
13314;BME280;6725;48.112;11.604;2022-11-12T02:22:29;95815.28;;;4.97;100.00
13314;BME280;6725;48.112;11.604;2022-11-12T02:24:54;95821.47;;;4.97;100.00
13314;BME280;6725;48.112;11.604;2022-11-12T02:27:20;95829.59;;;4.97;100.00
13314;BME280;6725;48.112;11.604;2022-11-12T02:29:46;95829.25;;;4.99;100.00
13314;BME280;6725;48.112;11.604;2022-11-12T02:32:12;95830.00;;;4.99;100.00
13314;BME280;6725;48.112;11.604;2022-11-12T02:34:38;95828.88;;;5.00;100.00
13314;BME280;6725;48.112;11.604;2022-11-12T02:37:04;95835.50;;;5.03;100.00
13314;BME280;6725;48.112;11.604;2022-11-12T02:39:29;95845.13;;;5.00;100.00
13314;BME280;6725;48.112;11.604;2022-11-12T02:41:55;95841.63;;;5.00;100.00
13314;BME280;6725;48.112;11.604;2022-11-12T02:44:20;95848.59;;;5.01;100.00
13314;BME280;6725;48.112;11.604;2022-11-12T02:46:45;95843.63;;;5.03;100.00
13314;BME280;6725;48.112;11.604;2022-11-12T02:49:10;95852.50;;;5.03;100.00
13314;BME280;6725;48.112;11.604;2022-11-12T02:51:36;95862.13;;;5.01;100.00
13314;BME280;6725;48.112;11.604;2022-11-12T02:54:01;95870.94;;;4.98;100.00
13314;BME280;6725;48.112;11.604;2022-11-12T02:56:27;95877.81;;;4.92;100.00
13314;BME280;6725;48.112;11.604;2022-11-12T02:58:52;95875.50;;;4.94;100.00
13314;BME280;6725;48.112;11.604;2022-11-12T03:01:17;95871.69;;;4.95;100.00
13314;BME280;6725;48.112;11.604;2022-11-12T03:03:43;95885.47;;;4.90;100.00
13314;BME280;6725;48.112;11.604;2022-11-12T03:06:08;95883.06;;;4.85;100.00
13314;BME280;6725;48.112;11.604;2022-11-12T03:08:33;95883.75;;;4.82;100.00
13314;BME280;6725;48.112;11.604;2022-11-12T03:11:05;95894.94;;;4.80;100.00
13314;BME280;6725;48.112;11.604;2022-11-12T03:13:30;95901.03;;;4.77;100.00
13314;BME280;6725;48.112;11.604;2022-11-12T03:15:59;95915.19;;;4.71;100.00
13314;BME280;6725;48.112;11.604;2022-11-12T03:18:25;95920.91;;;4.66;100.00
13314;BME280;6725;48.112;11.604;2022-11-12T03:20:51;95918.09;;;4.62;100.00
13314;BME280;6725;48.112;11.604;2022-11-12T03:23:16;95926.38;;;4.54;100.00
13314;BME280;6725;48.112;11.604;2022-11-12T03:25:41;95933.63;;;4.50;100.00
13314;BME280;6725;48.112;11.604;2022-11-12T03:28:09;95928.69;;;4.52;100.00
13314;BME280;6725;48.112;11.604;2022-11-12T03:30:37;95933.91;;;4.45;100.00
13314;BME280;6725;48.112;11.604;2022-11-12T03:33:04;95933.81;;;4.41;100.00
13314;BME280;6725;48.112;11.604;2022-11-12T03:35:30;95929.91;;;4.39;100.00
13314;BME280;6725;48.112;11.604;2022-11-12T03:37:56;95929.47;;;4.37;100.00
13314;BME280;6725;48.112;11.604;2022-11-12T03:40:23;95920.94;;;4.35;100.00
13314;BME280;6725;48.112;11.604;2022-11-12T03:42:49;95917.00;;;4.32;100.00
13314;BME280;6725;48.112;11.604;2022-11-12T03:45:16;95911.88;;;4.27;100.00
13314;BME280;6725;48.112;11.604;2022-11-12T03:47:48;95905.59;;;4.23;100.00
13314;BME280;6725;48.112;11.604;2022-11-12T03:50:15;95903.94;;;4.19;100.00
13314;BME280;6725;48.112;11.604;2022-11-12T03:52:49;95892.97;;;4.12;100.00
13314;BME280;6725;48.112;11.604;2022-11-12T03:55:17;95889.75;;;4.06;100.00
13314;BME280;6725;48.112;11.604;2022-11-12T03:57:43;95895.41;;;4.01;100.00
13314;BME280;6725;48.112;11.604;2022-11-12T04:00:10;95894.16;;;3.99;100.00
13314;BME280;6725;48.112;11.604;2022-11-12T04:02:36;95887.91;;;3.95;100.00
13314;BME280;6725;48.112;11.604;2022-11-12T04:05:03;95883.19;;;3.92;100.00
13314;BME280;6725;48.112;11.604;2022-11-12T04:08:01;95886.94;;;3.87;100.00
13314;BME280;6725;48.112;11.604;2022-11-12T04:10:45;95890.59;;;3.79;100.00
13314;BME280;6725;48.112;11.604;2022-11-12T04:13:11;95888.94;;;3.75;100.00
13314;BME280;6725;48.112;11.604;2022-11-12T04:18:41;95872.56;;;3.68;100.00
13314;BME280;6725;48.112;11.604;2022-11-12T04:21:29;95871.00;;;3.67;100.00
13314;BME280;6725;48.112;11.604;2022-11-12T04:24:13;95865.59;;;3.67;100.00
13314;BME280;6725;48.112;11.604;2022-11-12T04:26:58;95864.00;;;3.66;100.00
13314;BME280;6725;48.112;11.604;2022-11-12T04:29:24;95854.81;;;3.67;100.00
13314;BME280;6725;48.112;11.604;2022-11-12T04:32:08;95855.91;;;3.66;100.00
13314;BME280;6725;48.112;11.604;2022-11-12T04:34:34;95848.50;;;3.63;100.00
13314;BME280;6725;48.112;11.604;2022-11-12T04:37:01;95850.09;;;3.64;100.00
13314;BME280;6725;48.112;11.604;2022-11-12T04:39:27;95834.75;;;3.68;100.00
13314;BME280;6725;48.112;11.604;2022-11-12T04:41:52;95835.19;;;3.70;100.00
13314;BME280;6725;48.112;11.604;2022-11-12T04:44:36;95827.88;;;3.70;100.00
13314;BME280;6725;48.112;11.604;2022-11-12T04:47:40;95824.72;;;3.68;100.00
13314;BME280;6725;48.112;11.604;2022-11-12T04:50:16;95824.72;;;3.68;100.00
13314;BME280;6725;48.112;11.604;2022-11-12T04:52:42;95821.69;;;3.70;100.00
13314;BME280;6725;48.112;11.604;2022-11-12T04:55:08;95820.13;;;3.69;100.00
13314;BME280;6725;48.112;11.604;2022-11-12T04:57:33;95816.28;;;3.70;100.00
13314;BME280;6725;48.112;11.604;2022-11-12T04:59:59;95830.06;;;3.65;100.00
13314;BME280;6725;48.112;11.604;2022-11-12T05:02:24;95825.34;;;3.62;100.00
13314;BME280;6725;48.112;11.604;2022-11-12T05:04:49;95831.53;;;3.62;100.00
13314;BME280;6725;48.112;11.604;2022-11-12T05:07:15;95822.28;;;3.63;100.00
13314;BME280;6725;48.112;11.604;2022-11-12T05:09:41;95829.97;;;3.61;100.00
13314;BME280;6725;48.112;11.604;2022-11-12T05:12:07;95827.69;;;3.63;100.00
13314;BME280;6725;48.112;11.604;2022-11-12T05:14:33;95829.19;;;3.61;100.00
13314;BME280;6725;48.112;11.604;2022-11-12T05:16:58;95820.75;;;3.62;100.00
13314;BME280;6725;48.112;11.604;2022-11-12T05:19:24;95828.72;;;3.58;100.00
13314;BME280;6725;48.112;11.604;2022-11-12T05:21:49;95826.47;;;3.61;100.00
13314;BME280;6725;48.112;11.604;2022-11-12T05:24:34;95821.50;;;3.63;100.00
13314;BME280;6725;48.112;11.604;2022-11-12T05:27:01;95823.09;;;3.64;100.00
13314;BME280;6725;48.112;11.604;2022-11-12T05:29:26;95823.09;;;3.64;100.00
13314;BME280;6725;48.112;11.604;2022-11-12T05:31:52;95820.81;;;3.66;100.00
13314;BME280;6725;48.112;11.604;2022-11-12T05:34:17;95812.72;;;3.66;100.00
13314;BME280;6725;48.112;11.604;2022-11-12T05:36:43;95808.91;;;3.67;100.00
13314;BME280;6725;48.112;11.604;2022-11-12T05:39:08;95804.78;;;3.73;100.00
13314;BME280;6725;48.112;11.604;2022-11-12T05:41:33;95807.84;;;3.71;100.00
13314;BME280;6725;48.112;11.604;2022-11-12T05:43:59;95804.78;;;3.73;100.00
13314;BME280;6725;48.112;11.604;2022-11-12T05:46:24;95807.84;;;3.71;100.00
13314;BME280;6725;48.112;11.604;2022-11-12T05:48:49;95804.72;;;3.69;100.00
13314;BME280;6725;48.112;11.604;2022-11-12T05:51:15;95807.84;;;3.71;100.00
13314;BME280;6725;48.112;11.604;2022-11-12T05:53:41;95800.88;;;3.70;100.00
13314;BME280;6725;48.112;11.604;2022-11-12T05:56:08;95806.97;;;3.67;100.00
13314;BME280;6725;48.112;11.604;2022-11-12T05:58:36;95809.78;;;3.71;100.00
13314;BME280;6725;48.112;11.604;2022-11-12T06:01:02;95802.00;;;3.69;100.00
13314;BME280;6725;48.112;11.604;2022-11-12T06:03:28;95815.16;;;3.71;100.00
13314;BME280;6725;48.112;11.604;2022-11-12T06:05:53;95816.72;;;3.72;100.00
13314;BME280;6725;48.112;11.604;2022-11-12T06:08:18;95819.09;;;3.73;100.00
13314;BME280;6725;48.112;11.604;2022-11-12T06:10:48;95820.28;;;3.76;100.00
13314;BME280;6725;48.112;11.604;2022-11-12T06:13:14;95820.28;;;3.76;100.00
13314;BME280;6725;48.112;11.604;2022-11-12T06:15:40;95818.75;;;3.75;100.00
13314;BME280;6725;48.112;11.604;2022-11-12T06:18:05;95818.75;;;3.75;100.00
13314;BME280;6725;48.112;11.604;2022-11-12T06:20:30;95814.91;;;3.76;100.00
13314;BME280;6725;48.112;11.604;2022-11-12T06:22:56;95816.81;;;3.75;100.00
13314;BME280;6725;48.112;11.604;2022-11-12T06:25:21;95814.03;;;3.72;100.00
13314;BME280;6725;48.112;11.604;2022-11-12T06:27:47;95821.44;;;3.75;100.00
13314;BME280;6725;48.112;11.604;2022-11-12T06:30:13;95825.34;;;3.77;100.00
13314;BME280;6725;48.112;11.604;2022-11-12T06:32:38;95822.66;;;3.77;100.00
13314;BME280;6725;48.112;11.604;2022-11-12T06:35:04;95827.25;;;3.77;100.00
13314;BME280;6725;48.112;11.604;2022-11-12T06:37:29;95823.44;;;3.78;100.00
13314;BME280;6725;48.112;11.604;2022-11-12T06:39:54;95823.53;;;3.81;100.00
13314;BME280;6725;48.112;11.604;2022-11-12T06:42:20;95828.56;;;3.83;100.00
13314;BME280;6725;48.112;11.604;2022-11-12T06:44:45;95835.13;;;3.82;100.00
13314;BME280;6725;48.112;11.604;2022-11-12T06:47:10;95828.91;;;3.81;100.00
13314;BME280;6725;48.112;11.604;2022-11-12T06:49:36;95832.84;;;3.84;100.00
13314;BME280;6725;48.112;11.604;2022-11-12T06:52:01;95829.88;;;3.89;100.00
13314;BME280;6725;48.112;11.604;2022-11-12T06:54:27;95833.88;;;3.95;100.00
13314;BME280;6725;48.112;11.604;2022-11-12T06:56:52;95827.16;;;4.04;100.00
13314;BME280;6725;48.112;11.604;2022-11-12T06:59:17;95822.72;;;4.12;100.00
13314;BME280;6725;48.112;11.604;2022-11-12T07:01:43;95822.09;;;4.18;100.00
13314;BME280;6725;48.112;11.604;2022-11-12T07:04:08;95828.44;;;4.26;100.00
13314;BME280;6725;48.112;11.604;2022-11-12T07:06:35;95833.16;;;4.29;100.00
13314;BME280;6725;48.112;11.604;2022-11-12T07:09:00;95831.03;;;4.38;100.00
13314;BME280;6725;48.112;11.604;2022-11-12T07:11:26;95842.69;;;4.42;100.00
13314;BME280;6725;48.112;11.604;2022-11-12T07:13:51;95849.75;;;4.46;100.00
13314;BME280;6725;48.112;11.604;2022-11-12T07:16:16;95863.09;;;4.55;100.00
13314;BME280;6725;48.112;11.604;2022-11-12T07:18:44;95871.63;;;4.57;100.00
13314;BME280;6725;48.112;11.604;2022-11-12T07:21:12;95888.69;;;4.61;100.00
13314;BME280;6725;48.112;11.604;2022-11-12T07:23:38;95898.13;;;4.67;100.00
13314;BME280;6725;48.112;11.604;2022-11-12T07:26:06;95902.63;;;4.78;100.00
13314;BME280;6725;48.112;11.604;2022-11-12T07:28:32;95911.66;;;4.86;100.00
13314;BME280;6725;48.112;11.604;2022-11-12T07:31:03;95932.94;;;5.03;100.00
13314;BME280;6725;48.112;11.604;2022-11-12T07:33:29;95949.03;;;5.15;100.00
13314;BME280;6725;48.112;11.604;2022-11-12T07:35:59;95991.66;;;5.37;100.00
13314;BME280;6725;48.112;11.604;2022-11-12T07:38:26;96026.81;;;5.52;100.00
13314;BME280;6725;48.112;11.604;2022-11-12T07:40:57;96074.06;;;5.55;100.00
13314;BME280;6725;48.112;11.604;2022-11-12T07:43:23;96113.66;;;5.59;100.00
13314;BME280;6725;48.112;11.604;2022-11-12T07:45:48;96131.97;;;5.81;100.00
13314;BME280;6725;48.112;11.604;2022-11-12T07:48:13;96165.84;;;5.91;100.00
13314;BME280;6725;48.112;11.604;2022-11-12T07:50:39;96210.59;;;6.00;100.00
13314;BME280;6725;48.112;11.604;2022-11-12T07:53:04;96243.09;;;6.16;100.00
13314;BME280;6725;48.112;11.604;2022-11-12T07:55:29;96279.16;;;6.35;100.00
13314;BME280;6725;48.112;11.604;2022-11-12T07:57:58;96307.16;;;6.74;100.00
13314;BME280;6725;48.112;11.604;2022-11-12T08:00:23;96354.97;;;7.17;100.00
13314;BME280;6725;48.112;11.604;2022-11-12T08:02:49;96419.81;;;7.37;100.00
13314;BME280;6725;48.112;11.604;2022-11-12T08:05:14;96480.44;;;7.41;100.00
13314;BME280;6725;48.112;11.604;2022-11-12T08:07:39;96525.28;;;7.51;100.00
13314;BME280;6725;48.112;11.604;2022-11-12T08:10:05;96544.53;;;7.61;100.00
13314;BME280;6725;48.112;11.604;2022-11-12T08:12:31;96592.84;;;7.68;100.00
13314;BME280;6725;48.112;11.604;2022-11-12T08:14:56;96624.28;;;7.84;100.00
13314;BME280;6725;48.112;11.604;2022-11-12T08:17:21;96658.66;;;7.92;100.00
13314;BME280;6725;48.112;11.604;2022-11-12T08:19:47;96670.91;;;8.02;100.00
13314;BME280;6725;48.112;11.604;2022-11-12T08:22:12;96673.69;;;8.40;100.00
13314;BME280;6725;48.112;11.604;2022-11-12T08:24:37;96694.69;;;8.77;100.00
13314;BME280;6725;48.112;11.604;2022-11-12T08:27:03;96726.66;;;8.99;100.00
13314;BME280;6725;48.112;11.604;2022-11-12T08:29:28;96752.53;;;8.90;100.00
13314;BME280;6725;48.112;11.604;2022-11-12T08:31:54;96761.34;;;9.02;100.00
13314;BME280;6725;48.112;11.604;2022-11-12T08:34:19;96761.13;;;9.97;100.00
13314;BME280;6725;48.112;11.604;2022-11-12T08:36:44;96786.06;;;10.71;100.00
13314;BME280;6725;48.112;11.604;2022-11-12T08:39:10;96811.06;;;11.32;100.00
13314;BME280;6725;48.112;11.604;2022-11-12T08:41:35;96824.78;;;11.35;100.00
13314;BME280;6725;48.112;11.604;2022-11-12T08:44:01;96837.84;;;11.82;100.00
13314;BME280;6725;48.112;11.604;2022-11-12T08:46:26;96841.75;;;11.81;100.00
13314;BME280;6725;48.112;11.604;2022-11-12T08:48:52;96850.03;;;12.28;100.00
13314;BME280;6725;48.112;11.604;2022-11-12T08:51:17;96851.75;;;12.03;100.00
13314;BME280;6725;48.112;11.604;2022-11-12T08:53:42;96860.09;;;11.77;100.00
13314;BME280;6725;48.112;11.604;2022-11-12T08:56:08;96850.88;;;11.92;100.00
13314;BME280;6725;48.112;11.604;2022-11-12T08:58:33;96850.72;;;12.65;100.00
13314;BME280;6725;48.112;11.604;2022-11-12T09:01:04;96855.19;;;12.87;100.00
13314;BME280;6725;48.112;11.604;2022-11-12T09:03:29;96844.88;;;13.27;100.00
13314;BME280;6725;48.112;11.604;2022-11-12T09:05:55;96854.31;;;13.30;100.00
13314;BME280;6725;48.112;11.604;2022-11-12T09:08:24;96858.28;;;13.43;100.00
13314;BME280;6725;48.112;11.604;2022-11-12T09:10:49;96859.91;;;13.58;100.00
13314;BME280;6725;48.112;11.604;2022-11-12T09:13:15;96858.03;;;13.83;100.00
13314;BME280;6725;48.112;11.604;2022-11-12T09:15:45;96861.34;;;14.55;100.00
13314;BME280;6725;48.112;11.604;2022-11-12T09:18:15;96860.91;;;14.39;100.00
13314;BME280;6725;48.112;11.604;2022-11-12T09:20:41;96869.59;;;14.62;100.00
13314;BME280;6725;48.112;11.604;2022-11-12T09:23:12;96865.63;;;14.28;100.00
13314;BME280;6725;48.112;11.604;2022-11-12T09:25:38;96875.84;;;14.84;100.00
13314;BME280;6725;48.112;11.604;2022-11-12T09:28:26;96864.06;;;14.34;100.00
13314;BME280;6725;48.112;11.604;2022-11-12T09:30:51;96878.63;;;14.59;100.00
13314;BME280;6725;48.112;11.604;2022-11-12T09:33:22;96871.09;;;14.14;100.00
13314;BME280;6725;48.112;11.604;2022-11-12T09:35:48;96875.00;;;14.20;100.00
13314;BME280;6725;48.112;11.604;2022-11-12T09:38:15;96871.09;;;14.14;100.00
13314;BME280;6725;48.112;11.604;2022-11-12T09:43:39;96877.41;;;14.39;100.00
13314;BME280;6725;48.112;11.604;2022-11-12T09:49:31;96872.31;;;14.45;100.00
13314;BME280;6725;48.112;11.604;2022-11-12T09:52:00;96872.72;;;14.40;100.00
13314;BME280;6725;48.112;11.604;2022-11-12T09:54:30;96869.56;;;14.52;100.00
13314;BME280;6725;48.112;11.604;2022-11-12T09:56:56;96882.03;;;14.00;100.00
13314;BME280;6725;48.112;11.604;2022-11-12T09:59:31;96875.47;;;14.43;100.00
13314;BME280;6725;48.112;11.604;2022-11-12T10:04:51;96873.38;;;13.98;100.00
13314;BME280;6725;48.112;11.604;2022-11-12T10:10:36;96865.47;;;13.72;100.00
13314;BME280;6725;48.112;11.604;2022-11-12T10:23:53;96861.69;;;13.19;100.00
13314;BME280;6725;48.112;11.604;2022-11-12T10:26:21;96852.50;;;12.97;100.00
13314;BME280;6725;48.112;11.604;2022-11-12T10:31:43;96845.78;;;12.88;100.00
13314;BME280;6725;48.112;11.604;2022-11-12T10:36:37;96831.22;;;12.77;100.00
13314;BME280;6725;48.112;11.604;2022-11-12T10:39:04;96832.97;;;12.99;100.00
13314;BME280;6725;48.112;11.604;2022-11-12T10:41:31;96832.75;;;12.71;100.00
13314;BME280;6725;48.112;11.604;2022-11-12T10:44:04;96832.38;;;12.22;100.00
13314;BME280;6725;48.112;11.604;2022-11-12T10:46:32;96825.19;;;12.03;100.00
13314;BME280;6725;48.112;11.604;2022-11-12T10:49:04;96824.16;;;11.16;100.00
13314;BME280;6725;48.112;11.604;2022-11-12T10:51:33;96827.25;;;11.77;100.00
13314;BME280;6725;48.112;11.604;2022-11-12T10:54:18;96824.91;;;11.79;100.00
13314;BME280;6725;48.112;11.604;2022-11-12T10:56:44;96824.44;;;11.70;100.00
13314;BME280;6725;48.112;11.604;2022-11-12T10:59:21;96815.81;;;11.68;100.00
13314;BME280;6725;48.112;11.604;2022-11-12T11:01:58;96814.75;;;11.76;100.00
13314;BME280;6725;48.112;11.604;2022-11-12T11:04:31;96809.38;;;11.90;100.00
13314;BME280;6725;48.112;11.604;2022-11-12T11:07:01;96803.28;;;12.03;100.00
13314;BME280;6725;48.112;11.604;2022-11-12T11:09:27;96807.94;;;12.03;100.00
13314;BME280;6725;48.112;11.604;2022-11-12T11:11:53;96805.06;;;11.89;100.00
13314;BME280;6725;48.112;11.604;2022-11-12T11:16:52;96798.50;;;11.97;100.00
13314;BME280;6725;48.112;11.604;2022-11-12T11:19:19;96795.63;;;11.46;100.00
13314;BME280;6725;48.112;11.604;2022-11-12T11:21:56;96797.50;;;10.80;100.00
13314;BME280;6725;48.112;11.604;2022-11-12T11:35:28;96778.53;;;10.35;100.00
13314;BME280;6725;48.112;11.604;2022-11-12T11:38:22;96775.69;;;10.54;100.00
13314;BME280;6725;48.112;11.604;2022-11-12T11:43:39;96758.13;;;10.55;100.00
13314;BME280;6725;48.112;11.604;2022-11-12T11:49:10;96760.91;;;10.58;100.00
13314;BME280;6725;48.112;11.604;2022-11-12T11:51:50;96755.00;;;10.27;100.00
13314;BME280;6725;48.112;11.604;2022-11-12T12:00:23;96742.75;;;10.73;100.00
13314;BME280;6725;48.112;11.604;2022-11-12T12:03:18;96735.28;;;10.96;100.00
13314;BME280;6725;48.112;11.604;2022-11-12T12:11:33;96736.81;;;10.64;100.00
13314;BME280;6725;48.112;11.604;2022-11-12T12:16:59;96733.94;;;10.53;100.00
13314;BME280;6725;48.112;11.604;2022-11-12T12:22:09;96729.41;;;10.38;100.00
13314;BME280;6725;48.112;11.604;2022-11-12T12:24:49;96732.66;;;10.47;100.00
13314;BME280;6725;48.112;11.604;2022-11-12T12:27:20;96727.63;;;10.79;100.00
13314;BME280;6725;48.112;11.604;2022-11-12T12:37:54;96711.31;;;10.27;100.00
13314;BME280;6725;48.112;11.604;2022-11-12T12:40:28;96710.81;;;10.47;100.00
13314;BME280;6725;48.112;11.604;2022-11-12T12:43:04;96695.72;;;10.57;100.00
13314;BME280;6725;48.112;11.604;2022-11-12T12:48:01;96697.03;;;10.66;100.00
13314;BME280;6725;48.112;11.604;2022-11-12T12:50:29;96697.63;;;10.53;100.00
13314;BME280;6725;48.112;11.604;2022-11-12T12:53:04;96684.09;;;10.63;100.00
13314;BME280;6725;48.112;11.604;2022-11-12T12:55:35;96681.41;;;10.07;100.00
13314;BME280;6725;48.112;11.604;2022-11-12T12:58:01;96664.16;;;10.03;100.00
13314;BME280;6725;48.112;11.604;2022-11-12T13:02:57;96663.63;;;10.17;100.00
13314;BME280;6725;48.112;11.604;2022-11-12T13:05:29;96653.91;;;9.97;100.00
13314;BME280;6725;48.112;11.604;2022-11-12T13:08:00;96644.97;;;10.23;100.00
13314;BME280;6725;48.112;11.604;2022-11-12T13:15:51;96648.44;;;10.20;100.00
13314;BME280;6725;48.112;11.604;2022-11-12T13:23:53;96635.75;;;10.34;100.00
13314;BME280;6725;48.112;11.604;2022-11-12T13:29:37;96641.59;;;10.06;100.00
13314;BME280;6725;48.112;11.604;2022-11-12T13:32:24;96632.06;;;9.93;100.00
13314;BME280;6725;48.112;11.604;2022-11-12T13:40:45;96619.13;;;10.17;100.00
13314;BME280;6725;48.112;11.604;2022-11-12T13:48:20;96599.34;;;9.97;100.00
13314;BME280;6725;48.112;11.604;2022-11-12T13:50:55;96600.38;;;10.12;100.00
13314;BME280;6725;48.112;11.604;2022-11-12T13:53:25;96597.94;;;10.06;100.00
13314;BME280;6725;48.112;11.604;2022-11-12T13:55:51;96588.69;;;9.88;100.00
13314;BME280;6725;48.112;11.604;2022-11-12T13:58:19;96587.03;;;9.80;100.00
13314;BME280;6725;48.112;11.604;2022-11-12T14:00:54;96580.47;;;9.85;100.00
13314;BME280;6725;48.112;11.604;2022-11-12T14:03:20;96569.72;;;9.69;100.00
13314;BME280;6725;48.112;11.604;2022-11-12T14:05:47;96555.97;;;9.59;100.00
13314;BME280;6725;48.112;11.604;2022-11-12T14:21:28;96521.19;;;9.26;100.00
13314;BME280;6725;48.112;11.604;2022-11-12T14:23:54;96510.09;;;9.12;100.00
13314;BME280;6725;48.112;11.604;2022-11-12T14:26:36;96500.41;;;8.92;100.00
13314;BME280;6725;48.112;11.604;2022-11-12T14:29:02;96484.16;;;8.96;100.00
13314;BME280;6725;48.112;11.604;2022-11-12T14:31:28;96472.03;;;8.93;100.00
13314;BME280;6725;48.112;11.604;2022-11-12T14:33:53;96456.72;;;8.85;100.00
13314;BME280;6725;48.112;11.604;2022-11-12T14:36:19;96436.84;;;8.59;100.00
13314;BME280;6725;48.112;11.604;2022-11-12T14:38:47;96412.94;;;8.71;100.00
13314;BME280;6725;48.112;11.604;2022-11-12T14:41:34;96393.75;;;8.64;100.00
13314;BME280;6725;48.112;11.604;2022-11-12T14:44:03;96381.31;;;8.63;100.00
13314;BME280;6725;48.112;11.604;2022-11-12T14:46:58;96363.44;;;8.40;100.00
13314;BME280;6725;48.112;11.604;2022-11-12T14:49:40;96329.06;;;8.28;100.00
13314;BME280;6725;48.112;11.604;2022-11-12T14:52:16;96298.34;;;8.05;100.00
13314;BME280;6725;48.112;11.604;2022-11-12T14:54:49;96240.81;;;8.03;100.00
13314;BME280;6725;48.112;11.604;2022-11-12T14:57:27;96194.78;;;7.91;100.00
13314;BME280;6725;48.112;11.604;2022-11-12T14:59:53;96146.03;;;8.05;100.00
13314;BME280;6725;48.112;11.604;2022-11-12T15:02:31;96094.69;;;8.00;100.00
13314;BME280;6725;48.112;11.604;2022-11-12T15:07:51;95984.00;;;7.71;100.00
13314;BME280;6725;48.112;11.604;2022-11-12T15:10:41;95913.25;;;7.64;100.00